createdAt,value
2019-02-26T00:01:36.295Z,22.27
2019-02-26T00:04:08.069Z,20.73
2019-02-26T00:06:39.731Z,26.40
2019-02-26T00:09:11.429Z,22.67
2019-02-26T00:11:43.137Z,23.87
2019-02-26T00:14:17.512Z,21.90
2019-02-26T00:16:49.277Z,25.30
2019-02-26T00:19:21.567Z,36.00
2019-02-26T00:21:54.340Z,34.40
2019-02-26T00:24:30.573Z,39.80
2019-02-26T00:27:01.491Z,31.13
2019-02-26T00:29:33.920Z,28.70
2019-02-26T00:32:07.107Z,31.10
2019-02-26T00:34:39.427Z,24.53
2019-02-26T00:37:12.222Z,20.07
2019-02-26T00:39:45.342Z,24.77
2019-02-26T00:42:19.498Z,27.33
2019-02-26T00:44:53.280Z,28.37
2019-02-26T00:47:24.034Z,25.93
2019-02-26T00:49:55.724Z,22.57
2019-02-26T00:52:28.326Z,26.83
2019-02-26T00:55:03.049Z,27.70
2019-02-26T00:57:36.613Z,38.77
2019-02-26T01:00:09.939Z,22.83
2019-02-26T01:02:42.470Z,23.27
2019-02-26T01:05:15.701Z,25.17
2019-02-26T01:07:51.472Z,28.93
2019-02-26T01:10:21.696Z,27.77
2019-02-26T01:12:54.275Z,23.60
2019-02-26T01:15:26.800Z,28.73
2019-02-26T01:17:59.369Z,25.97
2019-02-26T01:20:32.039Z,24.13
2019-02-26T01:23:03.675Z,24.43
2019-02-26T01:25:38.259Z,28.23
2019-02-26T01:28:08.605Z,29.13
2019-02-26T01:30:40.318Z,33.30
2019-02-26T01:33:13.009Z,33.60
2019-02-26T01:35:44.610Z,27.30
2019-02-26T01:38:17.006Z,30.77
2019-02-26T01:40:51.887Z,25.63
2019-02-26T01:43:23.250Z,30.70
2019-02-26T01:45:55.491Z,31.10
2019-02-26T01:48:27.190Z,33.93
2019-02-26T01:50:59.167Z,30.67
2019-02-26T01:53:32.242Z,31.40
2019-02-26T01:56:05.118Z,28.37
2019-02-26T01:58:36.879Z,29.70
2019-02-26T02:01:09.946Z,34.73
2019-02-26T02:03:44.015Z,39.03
2019-02-26T02:06:16.000Z,33.53
2019-02-26T02:08:50.472Z,39.37
2019-02-26T02:11:23.863Z,39.83
2019-02-26T02:13:55.191Z,35.90
2019-02-26T02:16:29.607Z,46.00
2019-02-26T02:19:00.590Z,40.57
2019-02-26T02:21:33.784Z,40.17
2019-02-26T02:24:10.765Z,39.23
2019-02-26T02:26:41.101Z,41.07
2019-02-26T02:29:16.605Z,45.87
2019-02-26T02:31:47.408Z,41.53
2019-02-26T02:34:20.074Z,39.57
2019-02-26T02:36:51.711Z,47.60
2019-02-26T02:39:25.970Z,37.33
2019-02-26T02:41:56.891Z,43.90
2019-02-26T02:44:28.574Z,44.63
2019-02-26T02:47:01.978Z,44.40
2019-02-26T02:49:36.448Z,49.83
2019-02-26T02:52:09.057Z,42.47
2019-02-26T02:54:41.253Z,45.57
2019-02-26T02:57:13.823Z,48.00
2019-02-26T02:59:45.417Z,50.80
2019-02-26T03:02:18.428Z,44.60
2019-02-26T03:04:50.398Z,48.10
2019-02-26T03:07:23.549Z,44.23
2019-02-26T03:09:57.881Z,47.10
2019-02-26T03:12:29.245Z,56.47
2019-02-26T03:15:02.247Z,52.37
2019-02-26T03:17:34.301Z,54.87
2019-02-26T03:20:07.658Z,57.47
2019-02-26T03:22:45.137Z,49.77
2019-02-26T03:25:14.863Z,60.00
2019-02-26T03:27:47.197Z,56.17
2019-02-26T03:30:26.074Z,60.00
2019-02-26T03:32:58.436Z,62.03
2019-02-26T03:35:27.237Z,54.73
2019-02-26T03:38:00.786Z,54.47
2019-02-26T03:40:33.132Z,52.10
2019-02-26T03:43:07.772Z,58.43
2019-02-26T03:45:39.017Z,65.37
2019-02-26T03:48:10.701Z,60.23
2019-02-26T03:50:44.599Z,62.37
2019-02-26T03:53:16.696Z,64.10
2019-02-26T03:55:48.307Z,68.67
2019-02-26T03:58:19.926Z,75.63
2019-02-26T04:00:51.610Z,60.47
2019-02-26T04:03:23.516Z,66.23
2019-02-26T04:05:57.331Z,67.13
2019-02-26T04:08:30.263Z,63.17
2019-02-26T04:11:02.085Z,66.50
2019-02-26T04:13:33.829Z,70.33
2019-02-26T04:16:05.422Z,75.40
2019-02-26T04:18:37.019Z,79.40
2019-02-26T04:21:09.499Z,71.77
2019-02-26T04:23:44.003Z,88.07
2019-02-26T04:26:35.947Z,68.30
2019-02-26T04:29:21.429Z,71.30
2019-02-26T04:35:52.569Z,73.17
2019-02-26T04:39:21.827Z,79.10
2019-02-26T04:42:12.038Z,98.63
2019-02-26T04:45:40.179Z,83.40
2019-02-26T04:48:14.657Z,78.40
2019-02-26T04:50:45.453Z,88.70
2019-02-26T04:53:17.074Z,71.47
2019-02-26T04:55:48.688Z,85.63
2019-02-26T04:58:22.582Z,78.47
2019-02-26T05:00:53.684Z,77.80
2019-02-26T05:03:25.324Z,87.50
2019-02-26T05:05:59.579Z,86.53
2019-02-26T05:08:32.244Z,90.23
2019-02-26T05:11:03.850Z,82.40
2019-02-26T05:13:35.522Z,93.17
2019-02-26T05:16:07.211Z,79.23
2019-02-26T05:18:38.846Z,80.60
2019-02-26T05:21:12.862Z,73.27
2019-02-26T05:23:43.841Z,78.17
2019-02-26T05:26:18.040Z,78.20
2019-02-26T05:28:49.705Z,73.03
2019-02-26T05:31:22.374Z,74.13
2019-02-26T05:33:55.235Z,80.33
2019-02-26T05:36:30.723Z,76.30
2019-02-26T05:39:02.254Z,72.10
2019-02-26T05:41:35.562Z,73.47
2019-02-26T05:44:10.370Z,78.10
2019-02-26T05:46:40.611Z,81.50
2019-02-26T05:49:16.180Z,77.67
2019-02-26T05:51:46.658Z,79.47
2019-02-26T05:54:21.583Z,73.03
2019-02-26T05:56:51.639Z,77.10
2019-02-26T05:59:23.518Z,74.93
2019-02-26T06:01:57.789Z,76.13
2019-02-26T06:04:28.716Z,72.43
2019-02-26T06:07:02.204Z,79.60
2019-02-26T06:09:33.917Z,72.77
2019-02-26T06:12:05.696Z,72.27
2019-02-26T06:14:39.364Z,75.10
2019-02-26T06:17:13.169Z,75.20
2019-02-26T06:19:47.862Z,72.60
2019-02-26T06:22:21.422Z,66.20
2019-02-26T06:24:57.254Z,80.37
2019-02-26T06:27:27.518Z,70.07
2019-02-26T06:30:00.789Z,78.17
2019-02-26T06:32:34.728Z,70.30
2019-02-26T06:35:08.572Z,71.07
2019-02-26T06:37:40.426Z,69.50
2019-02-26T06:40:13.015Z,76.00
2019-02-26T06:42:44.610Z,69.27
2019-02-26T06:45:16.861Z,75.53
2019-02-26T06:47:51.330Z,81.83
2019-02-26T06:50:22.014Z,76.77
2019-02-26T06:52:53.628Z,76.57
2019-02-26T06:55:25.346Z,71.10
2019-02-26T06:58:20.049Z,74.10
2019-02-26T07:00:55.142Z,77.33
2019-02-26T07:03:25.395Z,68.73
2019-02-26T07:06:01.690Z,70.63
2019-02-26T07:08:31.274Z,68.23
2019-02-26T07:11:04.075Z,73.67
2019-02-26T07:13:39.144Z,75.87
2019-02-26T07:16:10.203Z,74.20
2019-02-26T07:18:41.876Z,73.53
2019-02-26T07:21:13.493Z,68.50
2019-02-26T07:23:45.218Z,70.17
2019-02-26T07:26:18.497Z,68.90
2019-02-26T07:28:51.033Z,67.40
2019-02-26T07:31:24.348Z,63.23
2019-02-26T07:33:58.214Z,68.67
2019-02-26T07:36:30.496Z,63.60
2019-02-26T07:39:02.096Z,73.07
2019-02-26T07:41:35.334Z,76.87
2019-02-26T07:44:11.482Z,82.97
2019-02-26T07:46:42.409Z,90.87
2019-02-26T07:49:13.657Z,103.37
2019-02-26T07:51:45.290Z,169.53
2019-02-26T07:54:16.906Z,73.60
2019-02-26T07:56:50.175Z,73.20
2019-02-26T07:59:27.568Z,127.50
2019-02-26T08:01:55.202Z,95.70
2019-02-26T08:04:26.811Z,74.20
2019-02-26T08:06:59.567Z,79.70
2019-02-26T08:09:31.887Z,70.43
2019-02-26T08:12:04.352Z,66.10
2019-02-26T08:14:37.962Z,65.70
2019-02-26T08:17:10.181Z,82.03
2019-02-26T08:19:44.866Z,72.80
2019-02-26T08:22:15.254Z,63.13
2019-02-26T08:24:48.569Z,67.60
2019-02-26T08:27:20.258Z,67.77
2019-02-26T08:29:54.162Z,71.80
2019-02-26T08:32:26.181Z,71.47
2019-02-26T08:35:00.000Z,62.10
2019-02-26T08:37:31.773Z,62.60
2019-02-26T08:40:03.488Z,68.20
2019-02-26T08:42:35.755Z,66.97
2019-02-26T08:45:09.724Z,67.00
2019-02-26T08:47:42.688Z,67.47
2019-02-26T08:50:15.038Z,65.43
2019-02-26T08:52:49.522Z,61.47
2019-02-26T08:55:23.902Z,59.80
2019-02-26T08:57:54.640Z,88.80
2019-02-26T09:00:27.450Z,52.57
2019-02-26T09:02:59.114Z,60.70
2019-02-26T09:05:33.804Z,58.83
2019-02-26T09:08:06.031Z,63.80
2019-02-26T09:10:38.723Z,73.40
2019-02-26T09:13:11.988Z,56.60
2019-02-26T09:15:44.523Z,63.57
2019-02-26T09:18:20.249Z,64.10
2019-02-26T09:20:49.538Z,58.63
2019-02-26T09:23:23.463Z,64.87
2019-02-26T09:25:57.057Z,54.80
2019-02-26T09:28:30.114Z,80.77
2019-02-26T09:31:06.699Z,60.90
2019-02-26T09:33:40.920Z,61.07
2019-02-26T09:36:15.222Z,63.33
2019-02-26T09:38:51.431Z,98.27
2019-02-26T09:41:23.802Z,58.13
2019-02-26T09:43:55.791Z,57.53
2019-02-26T09:46:27.819Z,62.30
2019-02-26T09:49:00.933Z,64.00
2019-02-26T09:51:35.172Z,114.90
2019-02-26T09:54:06.333Z,62.20
2019-02-26T09:56:38.059Z,70.20
2019-02-26T09:59:12.176Z,76.17
2019-02-26T10:01:43.580Z,135.47
2019-02-26T10:04:17.220Z,76.27
2019-02-26T10:06:48.915Z,76.77
2019-02-26T10:09:20.880Z,54.57
2019-02-26T10:11:52.611Z,63.17
2019-02-26T10:14:26.377Z,55.33
2019-02-26T10:16:58.539Z,68.17
2019-02-26T10:19:31.554Z,80.13
2019-02-26T10:22:09.082Z,66.30
2019-02-26T10:24:40.458Z,71.70
2019-02-26T10:27:14.098Z,62.33
2019-02-26T10:29:47.464Z,71.97
2019-02-26T10:32:19.030Z,55.83
2019-02-26T10:34:50.997Z,55.83
2019-02-26T10:37:25.180Z,59.07
2019-02-26T10:39:57.018Z,59.77
2019-02-26T10:42:39.476Z,56.90
2019-02-26T10:45:04.869Z,54.17
2019-02-26T10:47:37.288Z,50.27
2019-02-26T10:50:13.034Z,52.23
2019-02-26T10:52:50.010Z,53.30
2019-02-26T10:55:24.235Z,56.47
2019-02-26T10:57:58.358Z,59.77
2019-02-26T11:00:34.329Z,59.00
2019-02-26T11:03:06.527Z,64.03
2019-02-26T11:05:42.404Z,60.37
2019-02-26T11:08:13.845Z,54.97
2019-02-26T11:10:47.867Z,60.90
2019-02-26T11:13:21.094Z,53.77
2019-02-26T11:15:53.858Z,56.57
2019-02-26T11:18:26.903Z,55.27
2019-02-26T11:20:59.335Z,85.67
2019-02-26T11:23:33.961Z,49.43
2019-02-26T11:26:06.646Z,54.80
2019-02-26T11:28:40.552Z,51.23
2019-02-26T11:31:14.120Z,59.37
2019-02-26T11:33:48.993Z,70.03
2019-02-26T11:36:21.294Z,59.67
2019-02-26T11:38:53.871Z,64.90
2019-02-26T11:41:26.369Z,53.57
2019-02-26T11:43:59.275Z,55.73
2019-02-26T11:46:34.288Z,76.20
2019-02-26T11:49:04.635Z,63.57
2019-02-26T11:51:37.368Z,72.97
2019-02-26T11:54:10.737Z,56.90
2019-02-26T11:56:44.579Z,74.37
2019-02-26T11:59:16.814Z,57.30
2019-02-26T12:01:49.789Z,73.33
2019-02-26T12:04:21.545Z,61.67
2019-02-26T12:06:55.729Z,77.03
2019-02-26T12:09:29.238Z,57.40
2019-02-26T12:12:01.381Z,59.70
2019-02-26T12:14:37.381Z,62.27
2019-02-26T12:17:08.201Z,60.13
2019-02-26T12:19:40.210Z,55.80
2019-02-26T12:22:12.056Z,65.70
2019-02-26T12:24:43.783Z,63.20
2019-02-26T12:27:18.173Z,61.03
2019-02-26T12:29:51.625Z,58.20
2019-02-26T12:32:24.338Z,51.83
2019-02-26T12:34:55.542Z,46.97
2019-02-26T12:37:27.449Z,48.43
2019-02-26T12:39:59.374Z,45.10
2019-02-26T12:42:31.303Z,48.77
2019-02-26T12:45:04.881Z,43.70
2019-02-26T12:47:36.358Z,57.10
2019-02-26T12:50:11.544Z,47.10
2019-02-26T12:52:44.802Z,47.80
2019-02-26T12:55:16.311Z,51.53
2019-02-26T12:57:49.781Z,40.57
2019-02-26T13:00:23.183Z,55.43
2019-02-26T13:02:55.120Z,42.80
2019-02-26T13:05:26.830Z,56.27
2019-02-26T13:07:58.451Z,45.23
2019-02-26T13:10:30.164Z,64.10
2019-02-26T13:13:06.557Z,39.97
2019-02-26T13:15:35.234Z,51.90
2019-02-26T13:18:06.865Z,48.00
2019-02-26T13:20:38.482Z,64.90
2019-02-26T13:23:20.612Z,45.30
2019-02-26T13:25:43.485Z,40.00
2019-02-26T13:28:15.167Z,40.20
2019-02-26T13:30:47.903Z,39.20
2019-02-26T13:33:26.366Z,33.23
2019-02-26T13:36:00.375Z,36.00
2019-02-26T13:38:34.136Z,45.90
2019-02-26T13:41:24.377Z,40.77
2019-02-26T13:43:32.983Z,40.90
2019-02-26T13:46:04.643Z,53.70
2019-02-26T13:48:36.560Z,57.40
2019-02-26T13:51:08.413Z,41.03
2019-02-26T13:53:40.026Z,42.63
2019-02-26T13:56:11.744Z,60.77
2019-02-26T13:58:43.558Z,45.97
2019-02-26T14:01:15.299Z,41.73
2019-02-26T14:03:46.922Z,45.17
2019-02-26T14:06:21.526Z,39.07
2019-02-26T14:08:54.027Z,47.20
2019-02-26T14:11:25.835Z,35.57
2019-02-26T14:13:57.589Z,32.90
2019-02-26T14:16:32.562Z,37.63
2019-02-26T14:19:02.903Z,37.23
2019-02-26T14:21:34.609Z,39.17
2019-02-26T14:24:06.280Z,40.60
2019-02-26T14:26:37.981Z,34.03
2019-02-26T14:29:13.871Z,49.67
2019-02-26T14:31:46.001Z,35.70
2019-02-26T14:34:18.070Z,37.33
2019-02-26T14:36:49.886Z,45.57
2019-02-26T14:39:21.581Z,37.23
2019-02-26T14:41:53.286Z,80.97
2019-02-26T14:44:25.311Z,128.23
2019-02-26T14:46:57.100Z,86.97
2019-02-26T14:49:29.995Z,46.23
2019-02-26T14:52:02.699Z,42.53
2019-02-26T14:54:34.660Z,50.00
2019-02-26T14:57:06.583Z,47.63
2019-02-26T14:59:38.412Z,37.37
2019-02-26T15:02:10.216Z,48.23
2019-02-26T15:04:42.037Z,41.33
2019-02-26T15:07:15.040Z,54.07
2019-02-26T15:09:47.130Z,51.63
2019-02-26T15:12:19.067Z,83.03
2019-02-26T15:14:50.757Z,74.10
2019-02-26T15:17:22.816Z,75.37
2019-02-26T15:19:55.117Z,55.70
2019-02-26T15:22:26.744Z,55.17
2019-02-26T15:24:58.741Z,48.97
2019-02-26T15:27:36.227Z,53.43
2019-02-26T15:30:04.194Z,73.03
2019-02-26T15:32:37.020Z,64.20
2019-02-26T15:35:08.806Z,87.00
2019-02-26T15:37:40.669Z,165.33
2019-02-26T15:40:12.836Z,150.63
2019-02-26T15:42:44.543Z,161.07
2019-02-26T15:45:18.348Z,93.70
2019-02-26T15:47:50.515Z,168.27
2019-02-26T15:50:22.150Z,112.00
2019-02-26T15:52:53.857Z,111.87
2019-02-26T15:55:25.948Z,142.27
2019-02-26T15:58:03.090Z,129.53
2019-02-26T16:00:32.565Z,88.47
2019-02-26T16:03:04.463Z,118.93
2019-02-26T16:05:36.236Z,102.53
2019-02-26T16:08:08.123Z,153.40
2019-02-26T16:10:39.756Z,154.80
2019-02-26T16:13:11.386Z,176.43
2019-02-26T16:15:43.035Z,147.53
2019-02-26T16:18:15.010Z,154.90
2019-02-26T16:20:46.689Z,138.80
2019-02-26T16:23:18.389Z,117.30
2019-02-26T16:25:49.995Z,106.67
2019-02-26T16:28:21.700Z,90.60
2019-02-26T16:30:55.621Z,99.37
2019-02-26T16:33:26.660Z,127.67
2019-02-26T16:35:58.571Z,94.10
2019-02-26T16:38:30.191Z,140.87
2019-02-26T16:41:02.843Z,211.07
2019-02-26T16:43:35.704Z,134.03
2019-02-26T16:46:08.525Z,123.67
2019-02-26T16:48:41.726Z,147.57
2019-02-26T16:51:19.507Z,137.57
2019-02-26T16:53:50.230Z,176.77
2019-02-26T16:56:22.456Z,104.60
2019-02-26T16:58:54.210Z,93.90
2019-02-26T17:01:25.906Z,127.47
2019-02-26T17:03:59.117Z,124.27
2019-02-26T17:06:30.799Z,71.43
2019-02-26T17:09:02.563Z,119.03
2019-02-26T17:11:35.769Z,107.20
2019-02-26T17:14:08.376Z,102.30
2019-02-26T17:16:40.427Z,92.00
2019-02-26T17:19:15.313Z,164.20
2019-02-26T17:21:48.191Z,133.47
2019-02-26T17:24:22.462Z,137.53
2019-02-26T17:26:54.608Z,244.20
2019-02-26T17:29:27.568Z,303.03
2019-02-26T17:32:04.023Z,221.03
2019-02-26T17:34:34.606Z,156.37
2019-02-26T17:37:06.551Z,116.70
2019-02-26T17:39:39.744Z,127.60
2019-02-26T17:42:11.367Z,99.37
2019-02-26T17:44:42.983Z,144.33
2019-02-26T17:47:14.596Z,134.70
2019-02-26T17:49:46.410Z,132.37
2019-02-26T17:52:18.030Z,123.07
2019-02-26T17:54:49.892Z,102.53
2019-02-26T17:57:21.490Z,113.50
2019-02-26T17:59:53.141Z,86.20
2019-02-26T18:02:27.378Z,106.30
2019-02-26T18:05:00.560Z,114.27
2019-02-26T18:07:31.739Z,140.30
2019-02-26T18:10:04.482Z,200.33
2019-02-26T18:12:36.139Z,143.97
2019-02-26T18:15:08.416Z,181.33
2019-02-26T18:17:40.103Z,172.47
2019-02-26T18:20:14.223Z,185.80
2019-02-26T18:22:45.912Z,169.07
2019-02-26T18:25:17.942Z,155.90
2019-02-26T18:27:50.626Z,135.00
2019-02-26T18:30:23.055Z,127.07
2019-02-26T18:32:57.370Z,142.47
2019-02-26T18:35:28.461Z,122.57
2019-02-26T18:38:00.468Z,102.20
2019-02-26T18:40:32.167Z,106.93
2019-02-26T18:43:03.838Z,97.87
2019-02-26T18:45:35.529Z,101.30
2019-02-26T18:48:07.315Z,117.80
2019-02-26T18:50:39.159Z,101.70
2019-02-26T18:53:11.736Z,93.47
2019-02-26T18:55:44.247Z,85.43
2019-02-26T18:58:16.337Z,122.20
2019-02-26T19:00:48.698Z,91.17
2019-02-26T19:03:20.378Z,89.50
2019-02-26T19:05:54.659Z,98.27
2019-02-26T19:08:25.604Z,104.13
2019-02-26T19:10:57.276Z,89.83
2019-02-26T19:13:29.018Z,76.50
2019-02-26T19:16:00.705Z,96.33
2019-02-26T19:18:35.339Z,99.67
2019-02-26T19:21:05.864Z,97.57
2019-02-26T19:23:37.533Z,89.60
2019-02-26T19:26:13.502Z,115.90
2019-02-26T19:28:42.591Z,92.73
2019-02-26T19:31:15.318Z,136.53
2019-02-26T19:33:46.994Z,123.00
2019-02-26T19:36:18.722Z,96.30
2019-02-26T19:38:50.388Z,87.20
2019-02-26T19:41:22.067Z,83.13
2019-02-26T19:43:53.730Z,117.90
2019-02-26T19:46:27.094Z,118.30
2019-02-26T19:48:58.840Z,96.77
2019-02-26T19:51:30.508Z,93.17
2019-02-26T19:54:02.196Z,109.03
2019-02-26T19:56:34.277Z,104.53
2019-02-26T19:59:05.951Z,109.67
2019-02-26T20:01:37.553Z,106.23
2019-02-26T20:04:09.177Z,90.20
2019-02-26T20:06:40.868Z,93.33
2019-02-26T20:09:12.481Z,97.23
2019-02-26T20:11:44.388Z,78.43
2019-02-26T20:14:21.550Z,80.83
2019-02-26T20:16:49.342Z,82.97
2019-02-26T20:19:21.028Z,91.47
2019-02-26T20:21:52.713Z,94.50
2019-02-26T20:24:24.741Z,89.07
2019-02-26T20:26:56.557Z,106.33
2019-02-26T20:29:28.483Z,117.10
2019-02-26T20:32:00.162Z,107.53
2019-02-26T20:34:31.853Z,112.07
2019-02-26T20:37:03.543Z,95.10
2019-02-26T20:39:36.240Z,98.97
2019-02-26T20:42:07.942Z,94.87
2019-02-26T20:44:42.797Z,95.17
2019-02-26T20:47:12.963Z,113.47
2019-02-26T20:49:46.301Z,89.07
2019-02-26T20:52:17.949Z,102.67
2019-02-26T20:54:49.562Z,128.27
2019-02-26T20:57:21.267Z,104.07
2019-02-26T20:59:52.957Z,90.07
2019-02-26T21:02:24.778Z,76.10
2019-02-26T21:04:56.599Z,89.17
2019-02-26T21:07:28.605Z,130.77
2019-02-26T21:10:03.735Z,79.47
2019-02-26T21:12:34.947Z,104.23
2019-02-26T21:15:08.136Z,138.20
2019-02-26T21:17:39.848Z,136.80
2019-02-26T21:20:28.824Z,109.07
2019-02-26T21:23:01.960Z,140.30
2019-02-26T21:25:35.002Z,157.93
2019-02-26T21:28:08.082Z,232.20
2019-02-26T21:30:41.151Z,218.93
2019-02-26T21:33:14.290Z,193.30
2019-02-26T21:35:47.341Z,190.23
2019-02-26T21:38:20.485Z,146.37
2019-02-26T21:40:53.525Z,132.27
2019-02-26T21:43:26.680Z,107.50
2019-02-26T21:46:00.115Z,98.37
2019-02-26T21:48:36.552Z,102.90
2019-02-26T21:51:08.003Z,93.20
2019-02-26T21:53:41.062Z,108.13
2019-02-26T21:56:15.782Z,99.03
2019-02-26T21:58:48.988Z,127.27
2019-02-26T22:01:22.029Z,121.27
2019-02-26T22:03:55.792Z,128.00
2019-02-26T22:06:27.090Z,123.27
2019-02-26T22:08:58.974Z,105.07
2019-02-26T22:11:30.685Z,95.20
2019-02-26T22:14:02.838Z,96.47
2019-02-26T22:16:35.174Z,77.13
2019-02-26T22:19:07.104Z,86.63
2019-02-26T22:21:39.393Z,76.67
2019-02-26T22:24:11.018Z,76.73
2019-02-26T22:26:42.684Z,92.03
2019-02-26T22:29:15.170Z,87.37
2019-02-26T22:31:47.408Z,154.50
2019-02-26T22:34:19.725Z,110.93
2019-02-26T22:36:51.424Z,111.80
2019-02-26T22:39:24.011Z,132.97
2019-02-26T22:41:55.883Z,124.33
2019-02-26T22:44:27.471Z,112.10
2019-02-26T22:46:59.255Z,108.40
2019-02-26T22:49:30.961Z,94.30
2019-02-26T22:52:02.640Z,92.43
2019-02-26T22:54:35.003Z,94.33
2019-02-26T22:57:06.701Z,123.00
2019-02-26T22:59:38.643Z,113.37
2019-02-26T23:02:11.609Z,92.00
2019-02-26T23:04:44.821Z,105.67
2019-02-26T23:07:16.484Z,98.67
2019-02-26T23:09:52.088Z,124.80
2019-02-26T23:12:24.006Z,67.93
2019-02-26T23:14:56.036Z,64.87
2019-02-26T23:17:29.011Z,48.53
2019-02-26T23:20:00.889Z,53.07
2019-02-26T23:22:32.557Z,51.27
2019-02-26T23:25:04.542Z,57.07
2019-02-26T23:27:37.817Z,66.13
2019-02-26T23:30:09.907Z,52.03
2019-02-26T23:32:41.879Z,47.43
2019-02-26T23:35:13.502Z,54.50
2019-02-26T23:37:45.172Z,47.83
2019-02-26T23:40:16.880Z,52.30
2019-02-26T23:42:48.619Z,56.53
2019-02-26T23:45:23.981Z,62.00
2019-02-26T23:47:53.667Z,69.43
2019-02-26T23:50:25.579Z,79.50
2019-02-26T23:53:00.914Z,69.63
2019-02-26T23:55:30.577Z,47.00
2019-02-26T23:58:02.250Z,45.40
